Time;durP1;ratioP1;P1;durP2;ratioP2;P2;SDS_P1;SDS_P2;PMS_P1;PMS_P2;Temp;Humidity;BMP_temperature;BMP_pressure;BME280_temperature;BME280_humidity;BME280_pressure;Samples;Min_cycle;Max_cycle;Signal;HPM_P1;HPM_P2
2023/09/11 00:01:08;;;;;;;13.05;7.85;;;;;;;;;;5076586;28;20060;-79
2023/09/11 00:03:34;;;;;;;15.15;8.00;;;;;;;;;;5075154;28;20367;-80
2023/09/11 00:06:04;;;;;;;12.40;7.47;;;;;;;;;;5069052;28;20016;-80
2023/09/11 00:08:29;;;;;;;17.25;8.05;;;;;;;;;;5072481;28;20480;-79
2023/09/11 00:10:58;;;;;;;22.23;9.48;;;;;;;;;;5072727;28;20026;-80
2023/09/11 00:13:23;;;;;;;17.73;10.23;;;;;;;;;;5073393;28;20108;-80
2023/09/11 00:15:49;;;;;;;14.10;8.52;;;;;;;;;;5026009;28;1296110;-80
2023/09/11 00:18:14;;;;;;;14.82;8.77;;;;;;;;;;5072478;28;20019;-80
2023/09/11 00:20:39;;;;;;;14.98;8.98;;;;;;;;;;5062030;28;20124;-79
2023/09/11 00:23:08;;;;;;;17.25;9.20;;;;;;;;;;5066261;28;20036;-79
2023/09/11 00:25:33;;;;;;;16.75;8.65;;;;;;;;;;5059169;28;20025;-80
2023/09/11 00:27:59;;;;;;;13.13;8.43;;;;;;;;;;5068098;28;20012;-80
2023/09/11 00:30:24;;;;;;;12.70;8.52;;;;;;;;;;5059750;28;20025;-80
2023/09/11 00:32:52;;;;;;;16.48;9.18;;;;;;;;;;5072123;28;20545;-79
2023/09/11 00:35:18;;;;;;;20.40;8.85;;;;;;;;;;5071536;28;20039;-80
2023/09/11 00:37:43;;;;;;;13.95;8.48;;;;;;;;;;5068305;28;20013;-79
2023/09/11 00:40:11;;;;;;;12.45;7.72;;;;;;;;;;5061807;28;20021;-80
2023/09/11 00:42:37;;;;;;;14.75;8.38;;;;;;;;;;5071579;28;20095;-80
2023/09/11 00:45:02;;;;;;;16.92;8.63;;;;;;;;;;5070193;28;20036;-79
2023/09/11 00:47:28;;;;;;;21.33;9.05;;;;;;;;;;5071558;28;20021;-80
2023/09/11 00:49:54;;;;;;;15.25;8.80;;;;;;;;;;5072083;28;20504;-80
2023/09/11 00:52:19;;;;;;;19.73;9.57;;;;;;;;;;5071355;28;20020;-80
2023/09/11 00:54:45;;;;;;;15.73;8.52;;;;;;;;;;5066448;28;20028;-80
2023/09/11 00:57:10;;;;;;;16.48;8.45;;;;;;;;;;5062124;28;20200;-80
2023/09/11 00:59:35;;;;;;;18.23;8.73;;;;;;;;;;5072811;28;20739;-80
2023/09/11 01:02:01;;;;;;;13.93;8.38;;;;;;;;;;5071999;28;20024;-80
2023/09/11 01:04:29;;;;;;;14.93;7.78;;;;;;;;;;5070867;28;20029;-80
2023/09/11 01:06:57;;;;;;;11.82;7.70;;;;;;;;;;5072140;28;20368;-80
2023/09/11 01:09:22;;;;;;;13.95;8.15;;;;;;;;;;5071751;28;20439;-81
2023/09/11 01:11:48;;;;;;;15.13;8.05;;;;;;;;;;5072610;28;20032;-79
2023/09/11 01:14:13;;;;;;;15.35;8.95;;;;;;;;;;5074209;28;20028;-80
2023/09/11 01:16:56;;;;;;;12.73;7.93;;;;;;;;;;5072360;28;20058;-80
2023/09/11 01:19:25;;;;;;;12.00;7.97;;;;;;;;;;5072516;28;20036;-79
2023/09/11 01:22:08;;;;;;;12.70;8.15;;;;;;;;;;5071879;28;20025;-79
2023/09/11 01:24:36;;;;;;;18.40;8.68;;;;;;;;;;5072117;28;20028;-80
2023/09/11 01:27:08;;;;;;;19.30;8.07;;;;;;;;;;5072175;28;20016;-80
2023/09/11 01:29:33;;;;;;;13.90;8.73;;;;;;;;;;5062255;28;20059;-80
2023/09/11 01:32:02;;;;;;;14.30;8.93;;;;;;;;;;5068685;28;20430;-80
2023/09/11 01:34:27;;;;;;;15.77;7.75;;;;;;;;;;5071277;28;20043;-80
2023/09/11 01:36:53;;;;;;;13.65;8.63;;;;;;;;;;5070513;28;20024;-79
2023/09/11 01:39:18;;;;;;;19.85;8.77;;;;;;;;;;5070739;28;20448;-80
2023/09/11 01:41:45;;;;;;;15.50;8.45;;;;;;;;;;5070607;28;20104;-79
2023/09/11 01:44:21;;;;;;;16.35;9.35;;;;;;;;;;5066798;28;20478;-79
2023/09/11 01:46:47;;;;;;;12.48;8.25;;;;;;;;;;5060742;28;20368;-80
2023/09/11 01:49:13;;;;;;;15.52;8.73;;;;;;;;;;5068310;28;20016;-80
2023/09/11 01:51:40;;;;;;;20.08;8.45;;;;;;;;;;5070465;28;20387;-79
2023/09/11 01:54:06;;;;;;;18.80;8.65;;;;;;;;;;5069273;28;20028;-80
2023/09/11 01:56:31;;;;;;;18.50;8.60;;;;;;;;;;5070685;28;20031;-80
2023/09/11 01:58:57;;;;;;;13.98;8.10;;;;;;;;;;5069964;28;20519;-79
2023/09/11 02:01:22;;;;;;;15.63;8.48;;;;;;;;;;5070592;28;20490;-80
2023/09/11 02:03:47;;;;;;;13.15;7.60;;;;;;;;;;5069214;28;20030;-80
2023/09/11 02:06:12;;;;;;;16.20;8.85;;;;;;;;;;5070196;28;20097;-80
2023/09/11 02:08:38;;;;;;;17.10;8.75;;;;;;;;;;5070353;28;20044;-80
2023/09/11 02:11:03;;;;;;;11.45;7.70;;;;;;;;;;5068267;28;20095;-80
2023/09/11 02:13:28;;;;;;;15.60;8.25;;;;;;;;;;5070599;28;20107;-80
2023/09/11 02:15:54;;;;;;;19.00;9.27;;;;;;;;;;5069453;28;20123;-80
2023/09/11 02:18:19;;;;;;;13.45;8.27;;;;;;;;;;5070400;28;20024;-79
2023/09/11 02:20:47;;;;;;;18.95;7.28;;;;;;;;;;5071629;28;20025;-80
2023/09/11 02:23:13;;;;;;;12.27;7.70;;;;;;;;;;5069783;28;20005;-79
2023/09/11 02:25:38;;;;;;;14.23;7.13;;;;;;;;;;5069855;28;20020;-80
2023/09/11 02:28:04;;;;;;;12.90;7.50;;;;;;;;;;5070392;28;20039;-80
2023/09/11 02:30:29;;;;;;;13.43;7.22;;;;;;;;;;5057597;28;20019;-80
2023/09/11 02:32:55;;;;;;;14.13;7.00;;;;;;;;;;5070501;28;20016;-80
2023/09/11 02:35:20;;;;;;;14.45;7.03;;;;;;;;;;5070723;28;20032;-80
2023/09/11 02:37:48;;;;;;;21.15;7.50;;;;;;;;;;5071647;28;20107;-80
2023/09/11 02:40:14;;;;;;;16.30;8.35;;;;;;;;;;5071577;28;20484;-80
2023/09/11 02:42:39;;;;;;;12.68;7.88;;;;;;;;;;5068448;28;20227;-80
2023/09/11 02:45:12;;;;;;;12.90;8.77;;;;;;;;;;5071949;28;20021;-79
2023/09/11 02:47:38;;;;;;;19.00;8.48;;;;;;;;;;5073641;28;20043;-79
2023/09/11 02:50:03;;;;;;;16.00;7.95;;;;;;;;;;5070015;28;20032;-79
2023/09/11 02:52:29;;;;;;;17.33;7.65;;;;;;;;;;5057464;28;20108;-79
2023/09/11 02:54:54;;;;;;;12.85;7.88;;;;;;;;;;5071982;28;20094;-79
2023/09/11 02:57:20;;;;;;;17.85;8.00;;;;;;;;;;5067516;28;20016;-79
2023/09/11 02:59:45;;;;;;;24.92;8.65;;;;;;;;;;5070874;28;20112;-80
2023/09/11 03:02:10;;;;;;;15.63;8.52;;;;;;;;;;5070045;28;20090;-80
2023/09/11 03:04:36;;;;;;;14.10;8.88;;;;;;;;;;5073029;28;20020;-80
2023/09/11 03:07:01;;;;;;;14.48;9.02;;;;;;;;;;5074635;28;20107;-79
2023/09/11 03:09:27;;;;;;;16.42;8.50;;;;;;;;;;5073591;28;20036;-79
2023/09/11 03:11:52;;;;;;;15.98;8.93;;;;;;;;;;5073459;28;20038;-80
2023/09/11 03:14:18;;;;;;;15.07;7.95;;;;;;;;;;5073348;28;20036;-79
2023/09/11 03:16:43;;;;;;;14.13;8.18;;;;;;;;;;5074117;28;20032;-79
2023/09/11 03:19:12;;;;;;;14.10;8.45;;;;;;;;;;5073823;28;20475;-80
2023/09/11 03:21:37;;;;;;;15.18;8.25;;;;;;;;;;5073360;28;20041;-79
2023/09/11 03:24:03;;;;;;;11.52;6.97;;;;;;;;;;5075069;28;20012;-79
2023/09/11 03:26:28;;;;;;;12.65;8.43;;;;;;;;;;5072977;28;20028;-79
2023/09/11 03:28:53;;;;;;;17.48;8.48;;;;;;;;;;5090574;28;20387;-79
2023/09/11 03:31:19;;;;;;;11.07;7.43;;;;;;;;;;5065120;28;20175;-79
2023/09/11 03:33:45;;;;;;;14.18;7.53;;;;;;;;;;5073130;28;20376;-79
2023/09/11 03:36:14;;;;;;;15.38;8.13;;;;;;;;;;5072897;28;20033;-80
2023/09/11 03:38:40;;;;;;;12.85;8.18;;;;;;;;;;5072279;28;20024;-79
2023/09/11 03:41:05;;;;;;;15.13;7.43;;;;;;;;;;5072855;28;20154;-79
2023/09/11 03:43:30;;;;;;;16.15;7.75;;;;;;;;;;5074467;28;20066;-80
2023/09/11 03:45:56;;;;;;;13.27;7.75;;;;;;;;;;5074138;28;20023;-79
2023/09/11 03:48:21;;;;;;;12.43;7.32;;;;;;;;;;5074002;28;20035;-79
2023/09/11 03:50:46;;;;;;;13.13;7.38;;;;;;;;;;5073109;28;20021;-80
2023/09/11 03:53:12;;;;;;;15.65;7.75;;;;;;;;;;5072903;28;20020;-79
2023/09/11 03:55:37;;;;;;;11.50;6.78;;;;;;;;;;5072849;28;20024;-79
2023/09/11 03:58:02;;;;;;;14.88;7.38;;;;;;;;;;5073023;28;20031;-79
2023/09/11 04:00:28;;;;;;;13.00;7.20;;;;;;;;;;5073447;28;20028;-79
2023/09/11 04:02:53;;;;;;;14.90;7.68;;;;;;;;;;5072795;28;20087;-80
2023/09/11 04:05:19;;;;;;;16.25;8.15;;;;;;;;;;5075400;28;20024;-79
2023/09/11 04:07:44;;;;;;;11.57;6.90;;;;;;;;;;5073349;28;20418;-79
2023/09/11 04:10:09;;;;;;;11.35;6.57;;;;;;;;;;5074697;28;20026;-79
2023/09/11 04:12:35;;;;;;;14.25;7.60;;;;;;;;;;5075256;28;20029;-79
2023/09/11 04:15:00;;;;;;;11.93;7.40;;;;;;;;;;5074027;28;20028;-79
2023/09/11 04:17:25;;;;;;;13.10;7.45;;;;;;;;;;5071732;28;20073;-79
2023/09/11 04:19:53;;;;;;;12.55;7.53;;;;;;;;;;5074045;28;20456;-79
2023/09/11 04:22:18;;;;;;;21.42;8.13;;;;;;;;;;5073871;28;20321;-79
2023/09/11 04:24:46;;;;;;;11.35;6.78;;;;;;;;;;5073745;28;20034;-79
2023/09/11 04:27:11;;;;;;;14.18;7.40;;;;;;;;;;5071626;28;20039;-79
2023/09/11 04:29:36;;;;;;;16.02;7.50;;;;;;;;;;5063375;28;20025;-80
2023/09/11 04:32:02;;;;;;;18.98;6.97;;;;;;;;;;5068087;28;20020;-80
2023/09/11 04:34:27;;;;;;;12.63;6.70;;;;;;;;;;5071732;28;20170;-79
2023/09/11 04:36:55;;;;;;;14.85;7.57;;;;;;;;;;5070741;28;20048;-79
2023/09/11 04:39:22;;;;;;;17.13;7.93;;;;;;;;;;5071940;28;20032;-79
2023/09/11 04:41:49;;;;;;;15.35;7.57;;;;;;;;;;5073297;28;20013;-79
2023/09/11 04:44:14;;;;;;;17.50;7.97;;;;;;;;;;5071865;28;20023;-79
2023/09/11 04:46:40;;;;;;;14.13;7.82;;;;;;;;;;5071553;28;20115;-80
2023/09/11 04:49:05;;;;;;;12.55;7.40;;;;;;;;;;5070423;28;20052;-79
2023/09/11 04:51:31;;;;;;;20.63;8.20;;;;;;;;;;5070800;28;20028;-79
2023/09/11 04:53:56;;;;;;;15.52;7.38;;;;;;;;;;5071260;28;20036;-79
2023/09/11 04:56:21;;;;;;;15.00;7.55;;;;;;;;;;5071196;28;20020;-79
2023/09/11 04:58:47;;;;;;;12.93;7.53;;;;;;;;;;5071850;28;20115;-79
2023/09/11 05:01:13;;;;;;;15.35;6.72;;;;;;;;;;5072560;28;20036;-79
2023/09/11 05:03:39;;;;;;;11.25;7.20;;;;;;;;;;5072856;28;20385;-80
2023/09/11 05:06:04;;;;;;;18.75;7.40;;;;;;;;;;5071115;28;20030;-79
2023/09/11 05:08:29;;;;;;;10.52;7.03;;;;;;;;;;5070588;28;20507;-79
2023/09/11 05:10:55;;;;;;;17.50;9.07;;;;;;;;;;5066915;28;20020;-79
2023/09/11 05:13:20;;;;;;;11.57;7.25;;;;;;;;;;5071447;28;20476;-78
2023/09/11 05:15:48;;;;;;;15.73;8.02;;;;;;;;;;5071192;28;20078;-79
2023/09/11 05:18:14;;;;;;;16.55;6.97;;;;;;;;;;5072074;28;20103;-79
2023/09/11 05:20:40;;;;;;;14.35;7.00;;;;;;;;;;5071955;28;20028;-79
2023/09/11 05:23:05;;;;;;;14.88;7.55;;;;;;;;;;5071512;28;20036;-79
2023/09/11 05:25:30;;;;;;;17.67;7.30;;;;;;;;;;5071358;28;20016;-79
2023/09/11 05:27:59;;;;;;;13.63;7.63;;;;;;;;;;5070944;28;20044;-79
2023/09/11 05:30:24;;;;;;;19.95;8.27;;;;;;;;;;5066102;28;20016;-79
2023/09/11 05:32:52;;;;;;;19.58;8.07;;;;;;;;;;5073418;28;20020;-80
2023/09/11 05:35:19;;;;;;;17.40;8.30;;;;;;;;;;5074449;28;20027;-79
2023/09/11 05:37:45;;;;;;;15.50;8.73;;;;;;;;;;5066490;28;20025;-79
2023/09/11 05:40:10;;;;;;;15.88;8.32;;;;;;;;;;5066236;28;20028;-79
2023/09/11 05:42:36;;;;;;;14.93;8.13;;;;;;;;;;5071491;28;20016;-79
2023/09/11 05:45:01;;;;;;;22.63;8.05;;;;;;;;;;5071413;28;20016;-79
2023/09/11 05:47:29;;;;;;;19.38;8.18;;;;;;;;;;5069873;28;20111;-79
2023/09/11 05:50:00;;;;;;;19.48;8.32;;;;;;;;;;5067542;28;20020;-79
2023/09/11 05:52:25;;;;;;;17.25;8.43;;;;;;;;;;5067790;28;20055;-79
2023/09/11 05:54:51;;;;;;;15.93;7.63;;;;;;;;;;5071184;28;20020;-79
2023/09/11 05:57:16;;;;;;;21.40;8.15;;;;;;;;;;5068651;28;20030;-78
2023/09/11 05:59:41;;;;;;;11.50;7.32;;;;;;;;;;5069100;28;20536;-79
2023/09/11 06:02:06;;;;;;;14.05;7.65;;;;;;;;;;5070846;28;20033;-79
2023/09/11 06:04:32;;;;;;;21.10;9.07;;;;;;;;;;5069278;28;20448;-79
2023/09/11 06:06:57;;;;;;;14.65;7.32;;;;;;;;;;5059772;28;20040;-79
2023/09/11 06:09:22;;;;;;;12.43;7.18;;;;;;;;;;5071433;28;20081;-80
2023/09/11 06:11:48;;;;;;;20.00;7.45;;;;;;;;;;5061208;28;20021;-80
2023/09/11 06:14:20;;;;;;;12.38;7.40;;;;;;;;;;5068906;28;20120;-80
2023/09/11 06:16:46;;;;;;;15.35;7.30;;;;;;;;;;5069986;28;20028;-79
2023/09/11 06:19:11;;;;;;;10.35;6.68;;;;;;;;;;5069386;28;20020;-80
2023/09/11 06:21:44;;;;;;;13.35;7.18;;;;;;;;;;5064484;28;20078;-80
2023/09/11 06:24:09;;;;;;;14.88;7.35;;;;;;;;;;5069045;28;20413;-80
2023/09/11 06:26:34;;;;;;;15.60;8.07;;;;;;;;;;5069105;28;20030;-81
2023/09/11 06:29:00;;;;;;;13.82;7.85;;;;;;;;;;5067944;28;20547;-80
2023/09/11 06:31:28;;;;;;;15.70;7.80;;;;;;;;;;5063009;28;20016;-79
2023/09/11 06:33:54;;;;;;;18.88;8.57;;;;;;;;;;5066317;28;20020;-81
2023/09/11 06:36:21;;;;;;;14.18;7.80;;;;;;;;;;5071031;28;20539;-81
2023/09/11 06:38:46;;;;;;;19.42;7.78;;;;;;;;;;5071937;28;20020;-80
2023/09/11 06:41:12;;;;;;;15.30;8.38;;;;;;;;;;5070950;28;20074;-80
2023/09/11 06:43:37;;;;;;;19.65;8.63;;;;;;;;;;5068261;28;20027;-80
2023/09/11 06:46:03;;;;;;;16.38;8.15;;;;;;;;;;5076973;28;20096;-80
2023/09/11 06:48:29;;;;;;;16.33;8.30;;;;;;;;;;5076515;28;20013;-80
2023/09/11 06:50:54;;;;;;;20.23;8.07;;;;;;;;;;5066434;28;20031;-80
2023/09/11 06:53:19;;;;;;;18.15;8.93;;;;;;;;;;5068674;28;20024;-80
2023/09/11 06:55:45;;;;;;;12.82;7.82;;;;;;;;;;5077433;28;20021;-81
2023/09/11 06:58:14;;;;;;;14.23;8.73;;;;;;;;;;5077574;28;20078;-80
2023/09/11 07:00:39;;;;;;;18.55;8.88;;;;;;;;;;5075893;28;20025;-80
2023/09/11 07:03:05;;;;;;;20.23;9.88;;;;;;;;;;5076362;28;20026;-81
2023/09/11 07:05:34;;;;;;;18.88;9.13;;;;;;;;;;5071426;28;20032;-79
2023/09/11 07:08:00;;;;;;;15.98;8.45;;;;;;;;;;5070367;28;20095;-80
2023/09/11 07:10:25;;;;;;;18.35;9.57;;;;;;;;;;5071343;28;20075;-79
2023/09/11 07:12:50;;;;;;;20.05;8.60;;;;;;;;;;5074423;28;20486;-79
2023/09/11 07:15:19;;;;;;;16.83;9.80;;;;;;;;;;5069549;28;20116;-79
2023/09/11 07:17:45;;;;;;;16.88;9.52;;;;;;;;;;5072981;28;20364;-79
2023/09/11 07:20:12;;;;;;;18.35;9.85;;;;;;;;;;5072715;28;20076;-79
2023/09/11 07:22:37;;;;;;;18.70;10.20;;;;;;;;;;5073121;28;20545;-79
2023/09/11 07:25:03;;;;;;;19.48;10.55;;;;;;;;;;5059891;28;20119;-80
2023/09/11 07:27:33;;;;;;;22.08;10.10;;;;;;;;;;5069185;28;20032;-80
2023/09/11 07:29:59;;;;;;;17.98;9.38;;;;;;;;;;5060468;28;20177;-80
2023/09/11 07:32:25;;;;;;;17.40;9.02;;;;;;;;;;5071196;28;20052;-79
2023/09/11 07:34:50;;;;;;;20.63;9.07;;;;;;;;;;5073352;28;20055;-80
2023/09/11 07:37:16;;;;;;;21.58;10.52;;;;;;;;;;5071535;28;20024;-80
2023/09/11 07:39:41;;;;;;;18.48;10.25;;;;;;;;;;5074412;28;20013;-79
2023/09/11 07:42:07;;;;;;;19.83;10.40;;;;;;;;;;5072738;28;20013;-80
2023/09/11 07:44:32;;;;;;;21.67;9.98;;;;;;;;;;5066448;28;20029;-80
2023/09/11 07:46:57;;;;;;;23.30;10.93;;;;;;;;;;5069152;28;20028;-79
2023/09/11 07:49:22;;;;;;;21.92;10.30;;;;;;;;;;5073698;28;20020;-80
2023/09/11 07:51:48;;;;;;;23.10;10.05;;;;;;;;;;5073879;28;20024;-79
2023/09/11 07:54:13;;;;;;;22.13;9.80;;;;;;;;;;5071121;28;20091;-81
2023/09/11 07:56:38;;;;;;;20.20;10.00;;;;;;;;;;5071701;28;20140;-80
2023/09/11 07:59:04;;;;;;;17.67;9.75;;;;;;;;;;5060180;28;20039;-79
2023/09/11 08:01:30;;;;;;;23.58;10.90;;;;;;;;;;5074205;28;20031;-80
2023/09/11 08:03:55;;;;;;;22.10;10.38;;;;;;;;;;5071472;28;20021;-80
2023/09/11 08:06:22;;;;;;;20.52;10.52;;;;;;;;;;5066786;28;20138;-80
2023/09/11 08:08:48;;;;;;;19.67;10.77;;;;;;;;;;5073004;28;20333;-83
2023/09/11 08:11:15;;;;;;;19.40;9.93;;;;;;;;;;5073820;28;20040;-82
2023/09/11 08:13:40;;;;;;;24.13;11.63;;;;;;;;;;5069605;28;21832;-82
2023/09/11 08:16:06;;;;;;;16.92;10.32;;;;;;;;;;5069142;28;20043;-83
2023/09/11 08:18:41;;;;;;;;;;;;;;;;;;;;;
2023/09/11 08:21:07;;;;;;;19.60;9.55;;;;;;;;;;5071283;28;20025;-83
2023/09/11 08:23:33;;;;;;;23.42;9.63;;;;;;;;;;5069661;28;20115;-82
2023/09/11 08:25:59;;;;;;;23.20;8.70;;;;;;;;;;5076668;28;20024;-80
2023/09/11 08:28:25;;;;;;;16.42;8.57;;;;;;;;;;5075190;28;20020;-81
2023/09/11 08:30:53;;;;;;;15.38;9.15;;;;;;;;;;5077222;28;20046;-81
2023/09/11 08:33:19;;;;;;;22.10;9.50;;;;;;;;;;5058880;28;20547;-82
2023/09/11 08:35:47;;;;;;;15.63;8.95;;;;;;;;;;5073023;28;20054;-81
2023/09/11 08:38:14;;;;;;;19.75;9.60;;;;;;;;;;5071998;28;20468;-80
2023/09/11 08:40:42;;;;;;;21.15;9.50;;;;;;;;;;5071591;28;20384;-81
2023/09/11 08:43:08;;;;;;;20.15;8.93;;;;;;;;;;5068542;28;20021;-80
2023/09/11 08:45:33;;;;;;;16.80;8.18;;;;;;;;;;5072695;28;20095;-81
2023/09/11 08:47:59;;;;;;;14.73;8.40;;;;;;;;;;5068250;28;20037;-80
2023/09/11 08:50:27;;;;;;;19.85;8.38;;;;;;;;;;5067274;28;20031;-81
2023/09/11 08:52:53;;;;;;;13.02;7.68;;;;;;;;;;5069074;28;20025;-81
2023/09/11 08:55:25;;;;;;;16.73;8.18;;;;;;;;;;5057348;28;20421;-81
2023/09/11 08:57:50;;;;;;;;;;;;;;;;;;5057652;28;20048;-80
2023/09/11 09:00:16;;;;;;;14.32;8.10;;;;;;;;;;5063529;28;19974;-81
2023/09/11 09:02:42;;;;;;;22.48;7.78;;;;;;;;;;5055894;28;20327;-81
2023/09/11 09:05:07;;;;;;;18.08;8.73;;;;;;;;;;5063669;28;20053;-81
2023/09/11 09:07:33;;;;;;;12.13;7.30;;;;;;;;;;5066973;28;20521;-81
2023/09/11 09:09:59;;;;;;;14.23;7.80;;;;;;;;;;5061099;28;20044;-81
2023/09/11 09:12:26;;;;;;;18.08;8.50;;;;;;;;;;5066749;28;20119;-81
2023/09/11 09:14:51;;;;;;;14.65;7.30;;;;;;;;;;5063478;28;20021;-81
2023/09/11 09:17:17;;;;;;;14.30;6.55;;;;;;;;;;5067081;28;20027;-80
2023/09/11 09:19:44;;;;;;;12.88;6.82;;;;;;;;;;5071501;28;20073;-80
2023/09/11 09:22:10;;;;;;;16.92;7.40;;;;;;;;;;5070945;28;20472;-81
2023/09/11 09:24:37;;;;;;;11.00;5.72;;;;;;;;;;5070182;28;20036;-81
2023/09/11 09:27:04;;;;;;;16.13;6.97;;;;;;;;;;5071711;28;20067;-81
2023/09/11 09:29:34;;;;;;;14.85;6.28;;;;;;;;;;5071313;28;20117;-81
2023/09/11 09:32:00;;;;;;;17.70;6.72;;;;;;;;;;5071125;28;20103;-82
2023/09/11 09:34:25;;;;;;;13.93;6.15;;;;;;;;;;5070977;28;20024;-82
2023/09/11 09:36:52;;;;;;;14.25;6.88;;;;;;;;;;5070395;28;20027;-81
2023/09/11 09:39:18;;;;;;;11.05;5.95;;;;;;;;;;5091295;28;20056;-81
2023/09/11 09:41:53;;;;;;;13.40;5.70;;;;;;;;;;5072184;28;20082;-82
2023/09/11 09:44:35;;;;;;;12.68;5.57;;;;;;;;;;5072850;28;20017;-80
2023/09/11 09:47:07;;;;;;;9.60;5.93;;;;;;;;;;5068395;28;20016;-82
2023/09/11 09:50:08;;;;;;;14.60;5.57;;;;;;;;;;5067751;28;20082;-81
2023/09/11 09:52:33;;;;;;;13.35;5.60;;;;;;;;;;5070675;28;20074;-80
2023/09/11 09:55:02;;;;;;;11.45;6.57;;;;;;;;;;5070643;28;20471;-80
2023/09/11 09:57:27;;;;;;;12.88;6.30;;;;;;;;;;5070665;28;20438;-81
2023/09/11 09:59:54;;;;;;;13.80;6.20;;;;;;;;;;5063385;28;20028;-81
2023/09/11 10:02:25;;;;;;;12.93;6.03;;;;;;;;;;5065757;28;20016;-81
2023/09/11 10:04:52;;;;;;;14.50;5.72;;;;;;;;;;5063841;28;20530;-80
2023/09/11 10:07:34;;;;;;;14.02;5.63;;;;;;;;;;5070088;28;20105;-81
2023/09/11 10:10:17;;;;;;;14.93;5.68;;;;;;;;;;5089439;28;20328;-81
2023/09/11 10:12:42;;;;;;;16.45;6.28;;;;;;;;;;5067858;28;20384;-79
2023/09/11 10:15:10;;;;;;;12.43;6.00;;;;;;;;;;5073010;28;20032;-79
2023/09/11 10:17:36;;;;;;;18.67;5.75;;;;;;;;;;5067400;28;20036;-80
2023/09/11 10:20:03;;;;;;;11.25;5.75;;;;;;;;;;5074715;28;20524;-81
2023/09/11 10:22:28;;;;;;;12.30;6.13;;;;;;;;;;5074332;28;20131;-81
2023/09/11 10:24:54;;;;;;;7.50;4.90;;;;;;;;;;5073911;28;20048;-81
2023/09/11 10:27:19;;;;;;;12.13;5.88;;;;;;;;;;5073967;28;20021;-81
2023/09/11 10:29:53;;;;;;;10.82;6.15;;;;;;;;;;5074044;28;20026;-80
2023/09/11 10:32:22;;;;;;;12.43;6.03;;;;;;;;;;5069183;28;20024;-81
2023/09/11 10:34:48;;;;;;;11.00;5.72;;;;;;;;;;5074258;28;20531;-81
2023/09/11 10:37:14;;;;;;;14.57;5.25;;;;;;;;;;5072439;28;20481;-80
2023/09/11 10:39:39;;;;;;;15.80;6.55;;;;;;;;;;5074888;28;20043;-80
2023/09/11 10:42:05;;;;;;;11.93;5.18;;;;;;;;;;5072465;28;20016;-80
2023/09/11 10:44:33;;;;;;;10.77;4.88;;;;;;;;;;5075175;28;20021;-80
2023/09/11 10:47:04;;;;;;;16.27;5.93;;;;;;;;;;5072975;28;20028;-80
2023/09/11 10:49:32;;;;;;;9.77;5.93;;;;;;;;;;5066578;28;20388;-82
2023/09/11 10:52:03;;;;;;;10.68;5.00;;;;;;;;;;5054445;28;20029;-81
2023/09/11 10:54:28;;;;;;;15.88;5.57;;;;;;;;;;5063086;28;20124;-81
2023/09/11 10:56:55;;;;;;;17.42;5.72;;;;;;;;;;5072829;28;20048;-81
2023/09/11 10:59:23;;;;;;;12.25;5.50;;;;;;;;;;5072440;28;20468;-81
2023/09/11 11:01:49;;;;;;;10.77;5.70;;;;;;;;;;5071134;28;20422;-81
2023/09/11 11:04:16;;;;;;;12.98;5.40;;;;;;;;;;5073747;28;20032;-80
2023/09/11 11:06:45;;;;;;;12.68;6.07;;;;;;;;;;5073817;28;20031;-81
2023/09/11 11:09:24;;;;;;;14.77;5.60;;;;;;;;;;5071707;28;20067;-81
2023/09/11 11:11:49;;;;;;;9.73;5.68;;;;;;;;;;5077494;28;20021;-85
2023/09/11 11:14:21;;;;;;;12.32;5.68;;;;;;;;;;5068830;28;20017;-84
2023/09/11 11:16:46;;;;;;;;;;;;;;;;;;5062888;28;20554;-85
2023/09/11 11:19:23;;;;;;;15.05;5.40;;;;;;;;;;5068492;28;19958;-85
2023/09/11 11:21:51;;;;;;;10.85;5.53;;;;;;;;;;5070492;28;20107;-84
2023/09/11 11:24:17;;;;;;;15.13;5.88;;;;;;;;;;5074497;28;20368;-85
2023/09/11 11:26:44;;;;;;;6.75;5.03;;;;;;;;;;5075516;28;20027;-85
2023/09/11 11:29:09;;;;;;;10.23;5.22;;;;;;;;;;5075252;28;20337;-84
2023/09/11 11:31:34;;;;;;;13.02;5.75;;;;;;;;;;5075245;28;20012;-85
2023/09/11 11:34:00;;;;;;;12.57;5.70;;;;;;;;;;5075403;28;20016;-85
2023/09/11 11:36:26;;;;;;;15.70;5.57;;;;;;;;;;5074321;28;20025;-85
2023/09/11 11:38:55;;;;;;;9.95;5.47;;;;;;;;;;5074879;28;20476;-85
2023/09/11 11:41:20;;;;;;;10.40;5.57;;;;;;;;;;5065485;28;20044;-84
2023/09/11 11:43:46;;;;;;;11.15;5.32;;;;;;;;;;5069761;28;20024;-85
2023/09/11 11:46:13;;;;;;;12.45;5.40;;;;;;;;;;5074444;28;20027;-85
2023/09/11 11:48:39;;;;;;;14.18;5.95;;;;;;;;;;5074693;28;20039;-85
2023/09/11 11:51:07;;;;;;;7.53;5.22;;;;;;;;;;5073661;28;20043;-85
2023/09/11 11:53:35;;;;;;;11.85;5.25;;;;;;;;;;5062294;28;20439;-85
2023/09/11 11:56:03;;;;;;;18.35;5.72;;;;;;;;;;5072038;28;20024;-86
2023/09/11 11:58:28;;;;;;;8.70;5.50;;;;;;;;;;5066836;28;20021;-85
2023/09/11 12:01:04;;;;;;;13.55;5.03;;;;;;;;;;5069716;28;20111;-85
2023/09/11 12:03:31;;;;;;;14.40;5.68;;;;;;;;;;5065014;28;20016;-85
2023/09/11 12:05:57;;;;;;;15.30;5.88;;;;;;;;;;5070531;28;20021;-85
2023/09/11 12:08:26;;;;;;;14.82;6.25;;;;;;;;;;5068663;28;20434;-84
2023/09/11 12:10:51;;;;;;;15.02;5.75;;;;;;;;;;5075341;28;20020;-85
2023/09/11 12:13:17;;;;;;;10.65;4.90;;;;;;;;;;5073979;28;20462;-85
2023/09/11 12:15:43;;;;;;;11.90;5.55;;;;;;;;;;5073355;28;20056;-85
2023/09/11 12:18:12;;;;;;;12.88;6.10;;;;;;;;;;5070326;28;20463;-83
2023/09/11 12:20:37;;;;;;;17.98;5.95;;;;;;;;;;5064921;28;20032;-85
2023/09/11 12:23:02;;;;;;;11.73;5.78;;;;;;;;;;5055256;28;20021;-86
2023/09/11 12:25:28;;;;;;;14.27;5.65;;;;;;;;;;5062279;28;20020;-85
2023/09/11 12:27:54;;;;;;;7.80;5.43;;;;;;;;;;5071224;28;20119;-85
2023/09/11 12:30:22;;;;;;;10.15;5.28;;;;;;;;;;5073677;28;20044;-85
2023/09/11 12:32:53;;;;;;;10.90;4.88;;;;;;;;;;5074026;28;20056;-85
2023/09/11 12:35:32;;;;;;;12.33;4.40;;;;;;;;;;5063578;28;20025;-83
2023/09/11 12:37:57;;;;;;;9.90;4.05;;;;;;;;;;5070682;28;20024;-85
2023/09/11 12:40:22;;;;;;;10.95;4.53;;;;;;;;;;5058777;28;20035;-84
2023/09/11 12:42:51;;;;;;;11.50;4.00;;;;;;;;;;5073723;28;20108;-84
2023/09/11 12:45:16;;;;;;;13.75;4.53;;;;;;;;;;5073836;28;20025;-86
2023/09/11 12:47:42;;;;;;;10.98;4.25;;;;;;;;;;5064219;28;20013;-86
2023/09/11 12:50:08;;;;;;;10.65;5.05;;;;;;;;;;5069055;28;20050;-86
2023/09/11 12:52:33;;;;;;;10.63;5.03;;;;;;;;;;5069241;28;20402;-85
2023/09/11 12:55:01;;;;;;;9.15;4.70;;;;;;;;;;5063766;28;20020;-86
2023/09/11 12:57:26;;;;;;;9.43;4.90;;;;;;;;;;5072663;28;20422;-85
2023/09/11 12:59:55;;;;;;;7.18;4.28;;;;;;;;;;5060604;28;20085;-86
2023/09/11 13:02:21;;;;;;;13.23;4.90;;;;;;;;;;5072964;28;20034;-85
2023/09/11 13:04:46;;;;;;;11.57;5.15;;;;;;;;;;5059928;28;20064;-86
2023/09/11 13:07:11;;;;;;;11.65;4.68;;;;;;;;;;5061049;28;20049;-85
2023/09/11 13:09:37;;;;;;;6.43;4.35;;;;;;;;;;5056863;28;20471;-86
2023/09/11 13:12:03;;;;;;;12.40;4.63;;;;;;;;;;5072513;28;20398;-86
2023/09/11 13:14:28;;;;;;;10.52;4.53;;;;;;;;;;5072399;28;20020;-86
2023/09/11 13:16:54;;;;;;;10.80;4.15;;;;;;;;;;5072570;28;20111;-85
2023/09/11 13:19:19;;;;;;;12.38;4.82;;;;;;;;;;5059027;28;20075;-88
2023/09/11 13:21:44;;;;;;;9.35;4.13;;;;;;;;;;5068139;28;20024;-87
2023/09/11 13:24:10;;;;;;;11.75;4.30;;;;;;;;;;5073337;28;20012;-88
2023/09/11 13:26:35;;;;;;;5.63;3.50;;;;;;;;;;5055487;28;20028;-87
2023/09/11 13:29:00;;;;;;;9.30;4.15;;;;;;;;;;5062640;28;20452;-88
2023/09/11 13:31:28;;;;;;;6.35;4.05;;;;;;;;;;5061291;28;20083;-88
2023/09/11 13:33:56;;;;;;;8.07;4.10;;;;;;;;;;5070168;28;20020;-88
2023/09/11 13:36:24;;;;;;;8.35;4.65;;;;;;;;;;5074121;28;20034;-88
2023/09/11 13:38:49;;;;;;;8.98;4.05;;;;;;;;;;5058900;28;20024;-88
2023/09/11 13:41:14;;;;;;;11.00;3.70;;;;;;;;;;5068587;28;20070;-87
2023/09/11 13:43:40;;;;;;;11.43;4.15;;;;;;;;;;5073510;28;20470;-87
2023/09/11 13:46:05;;;;;;;7.90;4.18;;;;;;;;;;5072405;28;20012;-89
2023/09/11 13:48:31;;;;;;;10.05;3.80;;;;;;;;;;5071268;28;20024;-88
2023/09/11 13:50:56;;;;;;;8.35;3.58;;;;;;;;;;5073034;28;20027;-89
2023/09/11 13:53:22;;;;;;;7.90;4.22;;;;;;;;;;5065994;28;20419;-88
2023/09/11 13:55:47;;;;;;;8.25;3.80;;;;;;;;;;5059607;28;20032;-89
2023/09/11 13:58:13;;;;;;;12.82;4.25;;;;;;;;;;5073639;28;20025;-88
2023/09/11 14:00:38;;;;;;;9.20;3.47;;;;;;;;;;5059880;28;20013;-88
2023/09/11 14:03:04;;;;;;;10.00;3.53;;;;;;;;;;5057423;28;20025;-88
2023/09/11 14:05:32;;;;;;;6.45;3.88;;;;;;;;;;5065039;28;20031;-88
2023/09/11 14:07:57;;;;;;;8.88;4.20;;;;;;;;;;5072987;28;20505;-88
2023/09/11 14:10:22;;;;;;;9.43;4.25;;;;;;;;;;5068950;28;20064;-88
2023/09/11 14:12:53;;;;;;;10.65;3.85;;;;;;;;;;5066565;28;20024;-88
2023/09/11 14:15:19;;;;;;;8.43;3.80;;;;;;;;;;5072811;28;20409;-89
2023/09/11 14:17:44;;;;;;;9.90;3.72;;;;;;;;;;5073859;28;20043;-89
2023/09/11 14:20:11;;;;;;;7.05;4.00;;;;;;;;;;5077863;28;20025;-88
2023/09/11 14:22:40;;;;;;;8.85;3.92;;;;;;;;;;5060481;28;20498;-88
2023/09/11 14:25:06;;;;;;;7.63;3.58;;;;;;;;;;5059874;28;20029;-88
2023/09/11 14:27:31;;;;;;;7.22;3.72;;;;;;;;;;5072731;28;20078;-89